createdAt,value
2023-05-09T00:00:19.602Z,88745.00
2023-05-09T00:01:19.635Z,88745.00
2023-05-09T00:02:19.673Z,88743.00
2023-05-09T00:03:19.653Z,88745.00
2023-05-09T00:04:19.684Z,88745.00
2023-05-09T00:05:19.628Z,88745.00
2023-05-09T00:06:19.753Z,88743.00
2023-05-09T00:07:19.652Z,88745.00
2023-05-09T00:08:19.672Z,88741.00
2023-05-09T00:09:19.721Z,88739.00
2023-05-09T00:10:19.691Z,88743.00
2023-05-09T00:11:19.792Z,88741.00
2023-05-09T00:12:19.696Z,88739.00
2023-05-09T00:13:19.704Z,88737.00
2023-05-09T00:14:19.699Z,88739.00
2023-05-09T00:15:19.698Z,88735.00
2023-05-09T00:16:19.727Z,88737.00
2023-05-09T00:17:19.708Z,88735.00
2023-05-09T00:18:19.715Z,88733.00
2023-05-09T00:19:19.824Z,88729.00
2023-05-09T00:20:19.732Z,88727.00
2023-05-09T00:21:19.739Z,88727.00
2023-05-09T00:22:19.737Z,88725.00
2023-05-09T00:23:19.753Z,88723.00
2023-05-09T00:24:19.775Z,88723.00
2023-05-09T00:25:19.825Z,88723.00
2023-05-09T00:26:19.887Z,88723.00
2023-05-09T00:27:19.998Z,88723.00
2023-05-09T00:28:19.956Z,88721.00
2023-05-09T00:29:20.006Z,88723.00
2023-05-09T00:30:20.038Z,88721.00
2023-05-09T00:31:20.039Z,88721.00
2023-05-09T00:32:20.116Z,88719.00
2023-05-09T00:33:20.064Z,88717.00
2023-05-09T00:34:20.082Z,88716.00
2023-05-09T00:35:20.089Z,88716.00
2023-05-09T00:36:20.109Z,88716.00
2023-05-09T00:37:20.104Z,88714.00
2023-05-09T00:38:20.111Z,88712.00
2023-05-09T00:39:20.117Z,88714.00
2023-05-09T00:40:20.138Z,88714.00
2023-05-09T00:41:20.146Z,88712.00
2023-05-09T00:42:20.132Z,88712.00
2023-05-09T00:43:20.240Z,88712.00
2023-05-09T00:44:20.183Z,88714.00
2023-05-09T00:45:20.224Z,88714.00
2023-05-09T00:46:20.340Z,88714.00
2023-05-09T00:47:20.323Z,88712.00
2023-05-09T00:48:20.361Z,88714.00
2023-05-09T00:49:20.396Z,88714.00
2023-05-09T00:50:20.438Z,88712.00
2023-05-09T00:51:20.489Z,88716.00
2023-05-09T00:52:20.540Z,88710.00
2023-05-09T00:53:20.580Z,88710.00
2023-05-09T00:54:20.617Z,88712.00
2023-05-09T00:55:20.679Z,88710.00
2023-05-09T00:56:20.717Z,88708.00
2023-05-09T00:57:20.752Z,88708.00
2023-05-09T00:58:20.803Z,88708.00
2023-05-09T00:59:20.962Z,88706.00
2023-05-09T01:00:20.894Z,88706.00
2023-05-09T01:01:20.998Z,88704.00
2023-05-09T01:02:21.036Z,88700.00
2023-05-09T01:03:21.093Z,88700.00
2023-05-09T01:04:21.090Z,88700.00
2023-05-09T01:05:21.140Z,88700.00
2023-05-09T01:06:21.189Z,88696.00
2023-05-09T01:07:21.245Z,88694.00
2023-05-09T01:08:21.283Z,88694.00
2023-05-09T01:09:21.318Z,88694.00
2023-05-09T01:10:21.364Z,88694.00
2023-05-09T01:11:21.428Z,88696.00
2023-05-09T01:12:21.465Z,88696.00
2023-05-09T01:13:21.573Z,88694.00
2023-05-09T01:14:21.533Z,88694.00
2023-05-09T01:15:21.701Z,88696.00
2023-05-09T01:16:21.737Z,88694.00
2023-05-09T01:17:21.682Z,88694.00
2023-05-09T01:18:21.782Z,88694.00
2023-05-09T01:19:21.754Z,88694.00
2023-05-09T01:20:21.821Z,88696.00
2023-05-09T01:21:21.858Z,88696.00
2023-05-09T01:22:21.899Z,88694.00
2023-05-09T01:23:21.961Z,88694.00
2023-05-09T01:24:22.001Z,88692.00
2023-05-09T01:25:22.045Z,88692.00
2023-05-09T01:26:22.106Z,88692.00
2023-05-09T01:27:22.140Z,88692.00
2023-05-09T01:28:22.188Z,88692.00
2023-05-09T01:29:22.234Z,88692.00
2023-05-09T01:30:22.282Z,88692.00
2023-05-09T01:31:22.475Z,88690.00
2023-05-09T01:32:22.407Z,88690.00
2023-05-09T01:33:22.437Z,88690.00
2023-05-09T01:34:22.496Z,88692.00
2023-05-09T01:35:22.541Z,88692.00
2023-05-09T01:36:22.565Z,88694.00
2023-05-09T01:37:22.564Z,88692.00
2023-05-09T01:38:22.567Z,88692.00
2023-05-09T01:39:22.574Z,88690.00
2023-05-09T01:40:22.606Z,88692.00
2023-05-09T01:41:22.605Z,88692.00
2023-05-09T01:42:22.609Z,88692.00
2023-05-09T01:43:22.623Z,88690.00
2023-05-09T01:44:22.627Z,88686.00
2023-05-09T01:45:22.624Z,88686.00
2023-05-09T01:46:22.699Z,88688.00
2023-05-09T01:47:22.730Z,88684.00
2023-05-09T01:48:22.657Z,88686.00
2023-05-09T01:49:22.659Z,88686.00
2023-05-09T01:50:22.709Z,88684.00
2023-05-09T01:51:22.759Z,88686.00
2023-05-09T01:52:22.798Z,88684.00
2023-05-09T01:53:22.851Z,88684.00
2023-05-09T01:54:22.906Z,88682.00
2023-05-09T01:55:22.944Z,88684.00
2023-05-09T01:56:23.013Z,88684.00
2023-05-09T01:57:23.043Z,88682.00
2023-05-09T01:58:23.092Z,88682.00
2023-05-09T01:59:23.163Z,88684.00
2023-05-09T02:00:23.188Z,88684.00
2023-05-09T02:01:23.283Z,88682.00
2023-05-09T02:02:23.316Z,88682.00
2023-05-09T02:03:23.541Z,88680.00
2023-05-09T02:04:23.393Z,88678.00
2023-05-09T02:05:23.445Z,88678.00
2023-05-09T02:06:23.496Z,88678.00
2023-05-09T02:07:23.545Z,88678.00
2023-05-09T02:08:23.604Z,88677.00
2023-05-09T02:09:23.645Z,88675.00
2023-05-09T02:10:23.690Z,88675.00
2023-05-09T02:11:23.729Z,88677.00
2023-05-09T02:12:23.806Z,88677.00
2023-05-09T02:13:24.017Z,88675.00
2023-05-09T02:14:23.892Z,88675.00
2023-05-09T02:15:23.933Z,88675.00
2023-05-09T02:16:24.024Z,88673.00
2023-05-09T02:17:24.052Z,88671.00
2023-05-09T02:18:24.070Z,88673.00
2023-05-09T02:19:24.191Z,88673.00
2023-05-09T02:20:24.152Z,88671.00
2023-05-09T02:21:24.197Z,88671.00
2023-05-09T02:22:24.275Z,88669.00
2023-05-09T02:23:24.313Z,88669.00
2023-05-09T02:24:24.376Z,88669.00
2023-05-09T02:25:24.416Z,88665.00
2023-05-09T02:26:24.473Z,88665.00
2023-05-09T02:27:24.519Z,88663.00
2023-05-09T02:28:24.562Z,88663.00
2023-05-09T02:29:24.618Z,88663.00
2023-05-09T02:30:24.670Z,88667.00
2023-05-09T02:31:24.766Z,88665.00
2023-05-09T02:32:24.811Z,88667.00
2023-05-09T02:33:24.843Z,88665.00
2023-05-09T02:34:24.878Z,88665.00
2023-05-09T02:35:25.027Z,88665.00
2023-05-09T02:36:24.988Z,88661.00
2023-05-09T02:37:25.050Z,88659.00
2023-05-09T02:38:25.052Z,88655.00
2023-05-09T02:39:25.058Z,88655.00
2023-05-09T02:40:25.057Z,88653.00
2023-05-09T02:41:25.065Z,88651.00
2023-05-09T02:42:25.068Z,88651.00
2023-05-09T02:43:25.070Z,88649.00
2023-05-09T02:44:25.082Z,88649.00
2023-05-09T02:45:25.080Z,88651.00
2023-05-09T02:46:25.114Z,88647.00
2023-05-09T02:47:25.102Z,88645.00
2023-05-09T02:48:25.093Z,88647.00
2023-05-09T02:49:32.067Z,88647.00
2023-05-09T02:50:26.116Z,88647.00
2023-05-09T02:51:25.207Z,88647.00
2023-05-09T02:52:25.135Z,88647.00
2023-05-09T02:53:25.140Z,88647.00
2023-05-09T02:54:25.146Z,88645.00
2023-05-09T02:55:25.159Z,88645.00
2023-05-09T02:56:25.165Z,88647.00
2023-05-09T02:57:25.185Z,88645.00
2023-05-09T02:58:25.200Z,88643.00
2023-05-09T02:59:25.199Z,88643.00
2023-05-09T03:00:25.211Z,88641.00
2023-05-09T03:01:25.241Z,88639.00
2023-05-09T03:02:25.269Z,88635.00
2023-05-09T03:03:25.293Z,88633.00
2023-05-09T03:04:25.240Z,88635.00
2023-05-09T03:05:25.268Z,88637.00
2023-05-09T03:06:25.258Z,88639.00
2023-05-09T03:07:25.358Z,88639.00
2023-05-09T03:08:25.279Z,88635.00
2023-05-09T03:09:25.304Z,88637.00
2023-05-09T03:10:25.307Z,88637.00
2023-05-09T03:11:25.316Z,88633.00
2023-05-09T03:12:25.346Z,88635.00
2023-05-09T03:13:25.386Z,88633.00
2023-05-09T03:14:25.373Z,88631.00
2023-05-09T03:15:25.391Z,88631.00
2023-05-09T03:16:25.469Z,88631.00
2023-05-09T03:17:25.588Z,88631.00
2023-05-09T03:18:25.633Z,88631.00
2023-05-09T03:19:25.712Z,88629.00
2023-05-09T03:20:25.794Z,88629.00
2023-05-09T03:21:25.871Z,88629.00
2023-05-09T03:22:25.917Z,88629.00
2023-05-09T03:23:26.040Z,88629.00
2023-05-09T03:24:25.972Z,88627.00
2023-05-09T03:25:26.006Z,88627.00
2023-05-09T03:26:26.022Z,88627.00
2023-05-09T03:27:26.075Z,88627.00
2023-05-09T03:28:26.091Z,88625.00
2023-05-09T03:29:26.108Z,88625.00
2023-05-09T03:30:26.136Z,88627.00
2023-05-09T03:31:26.214Z,88627.00
2023-05-09T03:32:26.216Z,88627.00
2023-05-09T03:33:26.224Z,88627.00
2023-05-09T03:34:26.245Z,88627.00
2023-05-09T03:35:26.297Z,88627.00
2023-05-09T03:36:26.337Z,88627.00
2023-05-09T03:37:27.180Z,88629.00
2023-05-09T03:38:26.379Z,88629.00
2023-05-09T03:39:26.421Z,88627.00
2023-05-09T03:40:26.465Z,88627.00
2023-05-09T03:41:26.497Z,88627.00
2023-05-09T03:42:26.538Z,88627.00
2023-05-09T03:43:26.607Z,88623.00
2023-05-09T03:44:26.613Z,88627.00
2023-05-09T03:45:26.662Z,88623.00
2023-05-09T03:46:26.803Z,88627.00
2023-05-09T03:47:26.765Z,88627.00
2023-05-09T03:48:26.805Z,88625.00
2023-05-09T03:49:26.841Z,88625.00
2023-05-09T03:50:26.885Z,88625.00
2023-05-09T03:51:26.943Z,88625.00
2023-05-09T03:52:26.993Z,88625.00
2023-05-09T03:53:27.060Z,88623.00
2023-05-09T03:54:27.078Z,88623.00
2023-05-09T03:55:27.226Z,88623.00
2023-05-09T03:56:27.171Z,88623.00
2023-05-09T03:57:27.234Z,88623.00
2023-05-09T03:58:27.276Z,88625.00
2023-05-09T03:59:27.333Z,88625.00
2023-05-09T04:00:27.375Z,88623.00
2023-05-09T04:01:27.419Z,88627.00
2023-05-09T04:02:27.581Z,88623.00
2023-05-09T04:03:27.571Z,88625.00
2023-05-09T04:04:27.603Z,88627.00
2023-05-09T04:05:27.617Z,88627.00
2023-05-09T04:06:27.665Z,88627.00
2023-05-09T04:07:27.732Z,88627.00
2023-05-09T04:08:27.769Z,88623.00
2023-05-09T04:09:27.834Z,88623.00
2023-05-09T04:10:27.878Z,88623.00
2023-05-09T04:11:28.024Z,88623.00
2023-05-09T04:12:28.014Z,88627.00
2023-05-09T04:13:28.117Z,88627.00
2023-05-09T04:14:28.092Z,88625.00
2023-05-09T04:15:28.159Z,88631.00
2023-05-09T04:16:28.227Z,88629.00
2023-05-09T04:17:28.293Z,88631.00
2023-05-09T04:18:28.319Z,88633.00
2023-05-09T04:19:28.371Z,88633.00
2023-05-09T04:20:28.423Z,88631.00
2023-05-09T04:21:28.479Z,88629.00
2023-05-09T04:22:28.533Z,88631.00
2023-05-09T04:23:28.591Z,88629.00
2023-05-09T04:24:28.642Z,88631.00
2023-05-09T04:25:28.692Z,88627.00
2023-05-09T04:26:28.774Z,88627.00
2023-05-09T04:27:28.912Z,88629.00
2023-05-09T04:28:28.856Z,88627.00
2023-05-09T04:29:28.918Z,88627.00
2023-05-09T04:30:28.977Z,88623.00
2023-05-09T04:31:29.196Z,88622.00
2023-05-09T04:32:29.120Z,88623.00
2023-05-09T04:33:29.229Z,88625.00
2023-05-09T04:34:29.234Z,88623.00
2023-05-09T04:35:29.299Z,88625.00
2023-05-09T04:36:29.354Z,88627.00
2023-05-09T04:37:29.427Z,88625.00
2023-05-09T04:38:29.485Z,88629.00
2023-05-09T04:39:29.552Z,88631.00
2023-05-09T04:40:29.621Z,88631.00
2023-05-09T04:41:29.691Z,88631.00
2023-05-09T04:42:29.697Z,88633.00
2023-05-09T04:43:29.723Z,88633.00
2023-05-09T04:44:29.757Z,88633.00
2023-05-09T04:45:29.789Z,88631.00
2023-05-09T04:46:29.850Z,88633.00
2023-05-09T04:47:29.906Z,88627.00
2023-05-09T04:48:29.861Z,88627.00
2023-05-09T04:49:29.895Z,88627.00
2023-05-09T04:50:29.919Z,88625.00
2023-05-09T04:51:29.947Z,88625.00
2023-05-09T04:52:29.981Z,88623.00
2023-05-09T04:53:30.012Z,88620.00
2023-05-09T04:54:30.027Z,88620.00
2023-05-09T04:55:30.060Z,88618.00
2023-05-09T04:56:30.081Z,88622.00
2023-05-09T04:57:30.149Z,88620.00
2023-05-09T04:58:30.220Z,88620.00
2023-05-09T04:59:30.385Z,88623.00
2023-05-09T05:00:30.367Z,88620.00
2023-05-09T05:01:30.461Z,88622.00
2023-05-09T05:02:30.526Z,88623.00
2023-05-09T05:03:30.602Z,88623.00
2023-05-09T05:04:30.708Z,88622.00
2023-05-09T05:05:31.931Z,88625.00
2023-05-09T05:06:30.820Z,88623.00
2023-05-09T05:07:30.893Z,88623.00
2023-05-09T05:08:30.963Z,88625.00
2023-05-09T05:09:31.038Z,88627.00
2023-05-09T05:10:31.110Z,88629.00
2023-05-09T05:11:31.187Z,88627.00
2023-05-09T05:12:31.261Z,88629.00
2023-05-09T05:13:31.333Z,88627.00
2023-05-09T05:14:31.447Z,88629.00
2023-05-09T05:15:31.525Z,88629.00
2023-05-09T05:16:31.514Z,88629.00
2023-05-09T05:17:31.547Z,88627.00
2023-05-09T05:18:31.545Z,88625.00
2023-05-09T05:19:31.586Z,88622.00
2023-05-09T05:20:31.602Z,88623.00
2023-05-09T05:21:31.638Z,88622.00
2023-05-09T05:22:32.789Z,88620.00
2023-05-09T05:23:31.713Z,88622.00
2023-05-09T05:24:31.749Z,88620.00
2023-05-09T05:25:31.787Z,88622.00
2023-05-09T05:26:31.830Z,88620.00
2023-05-09T05:27:31.869Z,88620.00
2023-05-09T05:28:32.832Z,88622.00
2023-05-09T05:29:31.973Z,88622.00
2023-05-09T05:30:34.178Z,88629.00
2023-05-09T05:31:32.375Z,88623.00
2023-05-09T05:32:32.233Z,88622.00
2023-05-09T05:33:32.232Z,88623.00
2023-05-09T05:34:32.235Z,88625.00
2023-05-09T05:35:32.280Z,88623.00
2023-05-09T05:36:32.318Z,88625.00
2023-05-09T05:37:32.331Z,88623.00
2023-05-09T05:38:32.367Z,88627.00
2023-05-09T05:39:32.402Z,88625.00
2023-05-09T05:40:32.433Z,88627.00
2023-05-09T05:41:32.481Z,88629.00
2023-05-09T05:42:32.507Z,88629.00
2023-05-09T05:43:32.553Z,88631.00
2023-05-09T05:44:32.567Z,88629.00
2023-05-09T05:45:32.656Z,88633.00
2023-05-09T05:46:32.619Z,88633.00
2023-05-09T05:47:32.755Z,88633.00
2023-05-09T05:48:32.660Z,88629.00
2023-05-09T05:49:32.698Z,88631.00
2023-05-09T05:50:32.708Z,88631.00
2023-05-09T05:51:32.732Z,88633.00
2023-05-09T05:52:32.745Z,88633.00
2023-05-09T05:53:32.948Z,88631.00
2023-05-09T05:54:32.804Z,88633.00
2023-05-09T05:55:32.833Z,88629.00
2023-05-09T05:56:32.870Z,88631.00
2023-05-09T05:57:32.903Z,88627.00
2023-05-09T05:58:32.926Z,88627.00
2023-05-09T05:59:32.988Z,88629.00
2023-05-09T06:00:33.008Z,88627.00
2023-05-09T06:01:33.047Z,88625.00
2023-05-09T06:02:33.147Z,88625.00
2023-05-09T06:03:33.386Z,88623.00
2023-05-09T06:04:33.192Z,88623.00
2023-05-09T06:05:33.218Z,88625.00
2023-05-09T06:06:33.262Z,88625.00
2023-05-09T06:07:33.312Z,88622.00
2023-05-09T06:08:33.399Z,88622.00
2023-05-09T06:09:33.526Z,88620.00
2023-05-09T06:10:33.604Z,88618.00
2023-05-09T06:11:33.728Z,88620.00
2023-05-09T06:12:33.821Z,88620.00
2023-05-09T06:13:33.947Z,88620.00
2023-05-09T06:14:34.049Z,88616.00
2023-05-09T06:15:34.164Z,88618.00
2023-05-09T06:16:34.319Z,88618.00
2023-05-09T06:17:34.427Z,88618.00
2023-05-09T06:18:34.666Z,88616.00
2023-05-09T06:19:34.591Z,88616.00
2023-05-09T06:20:34.697Z,88618.00
2023-05-09T06:21:34.809Z,88620.00
2023-05-09T06:22:34.842Z,88623.00
2023-05-09T06:23:34.901Z,88622.00
2023-05-09T06:24:36.134Z,88623.00
2023-05-09T06:25:35.028Z,88623.00
2023-05-09T06:26:35.050Z,88625.00
2023-05-09T06:27:35.091Z,88623.00
2023-05-09T06:28:35.182Z,88625.00
2023-05-09T06:29:35.182Z,88623.00
2023-05-09T06:30:35.246Z,88625.00
2023-05-09T06:31:35.322Z,88625.00
2023-05-09T06:32:35.407Z,88620.00
2023-05-09T06:33:35.384Z,88620.00
2023-05-09T06:34:35.411Z,88620.00
2023-05-09T06:35:35.462Z,88618.00
2023-05-09T06:36:35.625Z,88618.00
2023-05-09T06:37:35.658Z,88614.00
2023-05-09T06:38:35.721Z,88614.00
2023-05-09T06:39:35.751Z,88612.00
2023-05-09T06:40:35.922Z,88608.00
2023-05-09T06:41:35.851Z,88608.00
2023-05-09T06:42:35.891Z,88612.00
2023-05-09T06:43:35.942Z,88614.00
2023-05-09T06:44:35.981Z,88616.00
2023-05-09T06:45:36.105Z,88614.00
2023-05-09T06:46:36.114Z,88614.00
2023-05-09T06:47:36.155Z,88614.00
2023-05-09T06:48:36.177Z,88612.00
2023-05-09T06:49:36.238Z,88614.00
2023-05-09T06:50:36.410Z,88616.00
2023-05-09T06:51:36.398Z,88614.00
2023-05-09T06:52:36.483Z,88614.00
2023-05-09T06:53:36.569Z,88616.00
2023-05-09T06:54:36.656Z,88616.00
2023-05-09T06:55:36.731Z,88616.00
2023-05-09T06:56:36.823Z,88616.00
2023-05-09T06:57:36.906Z,88616.00
2023-05-09T06:58:37.008Z,88618.00
2023-05-09T06:59:37.144Z,88620.00
2023-05-09T07:00:37.195Z,88618.00
2023-05-09T07:01:37.372Z,88616.00
2023-05-09T07:02:37.452Z,88618.00
2023-05-09T07:03:37.638Z,88612.00
2023-05-09T07:04:37.737Z,88616.00
2023-05-09T07:05:37.763Z,88616.00
2023-05-09T07:06:37.960Z,88612.00
2023-05-09T07:07:37.963Z,88610.00
2023-05-09T07:08:38.061Z,88610.00
2023-05-09T07:09:38.187Z,88610.00
2023-05-09T07:10:38.277Z,88610.00
2023-05-09T07:11:38.416Z,88610.00
2023-05-09T07:12:38.526Z,88606.00
2023-05-09T07:13:38.528Z,88608.00
2023-05-09T07:14:38.573Z,88608.00
2023-05-09T07:15:41.992Z,88610.00
2023-05-09T07:16:38.682Z,88604.00
2023-05-09T07:17:38.725Z,88606.00
2023-05-09T07:18:38.744Z,88602.00
2023-05-09T07:19:38.762Z,88604.00
2023-05-09T07:20:38.806Z,88600.00
2023-05-09T07:21:38.846Z,88602.00
2023-05-09T07:22:39.025Z,88600.00
2023-05-09T07:23:38.939Z,88598.00
2023-05-09T07:24:38.984Z,88598.00
2023-05-09T07:25:39.024Z,88598.00
2023-05-09T07:26:39.062Z,88598.00
2023-05-09T07:27:39.106Z,88596.00
2023-05-09T07:28:39.157Z,88598.00
2023-05-09T07:29:39.204Z,88594.00
2023-05-09T07:30:39.257Z,88594.00
2023-05-09T07:31:39.331Z,88592.00
2023-05-09T07:32:39.376Z,88592.00
2023-05-09T07:33:39.403Z,88590.00
2023-05-09T07:34:39.478Z,88594.00
2023-05-09T07:35:39.569Z,88594.00
2023-05-09T07:36:39.733Z,88596.00
2023-05-09T07:37:39.806Z,88594.00
2023-05-09T07:38:39.904Z,88598.00
2023-05-09T07:39:39.888Z,88592.00
2023-05-09T07:40:39.957Z,88594.00
2023-05-09T07:41:40.033Z,88592.00
2023-05-09T07:42:40.096Z,88590.00
2023-05-09T07:43:40.167Z,88588.00
2023-05-09T07:44:40.247Z,88586.00
2023-05-09T07:45:40.319Z,88588.00
2023-05-09T07:46:40.376Z,88586.00
2023-05-09T07:47:40.444Z,88582.00
2023-05-09T07:48:40.483Z,88580.00
2023-05-09T07:49:40.547Z,88580.00
2023-05-09T07:50:40.639Z,88578.00
2023-05-09T07:51:40.698Z,88578.00
2023-05-09T07:52:40.756Z,88578.00
2023-05-09T07:53:40.792Z,88576.00
2023-05-09T07:54:40.945Z,88576.00
2023-05-09T07:55:40.905Z,88573.00
2023-05-09T07:56:40.958Z,88571.00
2023-05-09T07:57:40.997Z,88567.00
2023-05-09T07:58:41.042Z,88565.00
2023-05-09T07:59:41.061Z,88559.00
2023-05-09T08:00:41.099Z,88561.00
2023-05-09T08:01:41.104Z,88559.00
2023-05-09T08:02:41.246Z,88557.00
2023-05-09T08:03:41.214Z,88557.00
2023-05-09T08:04:41.638Z,88553.00
2023-05-09T08:05:41.232Z,88553.00
2023-05-09T08:06:41.255Z,88553.00
2023-05-09T08:07:41.280Z,88553.00
2023-05-09T08:08:41.305Z,88551.00
2023-05-09T08:09:41.357Z,88551.00
2023-05-09T08:10:41.510Z,88545.00
2023-05-09T08:11:41.402Z,88545.00
2023-05-09T08:12:41.491Z,88545.00
2023-05-09T08:13:41.498Z,88545.00
2023-05-09T08:14:41.503Z,88543.00
2023-05-09T08:15:41.560Z,88543.00
2023-05-09T08:16:41.558Z,88545.00
2023-05-09T08:17:41.649Z,88543.00
2023-05-09T08:18:41.624Z,88541.00
2023-05-09T08:19:41.653Z,88541.00
2023-05-09T08:20:41.689Z,88537.00
2023-05-09T08:21:41.709Z,88539.00
2023-05-09T08:22:41.745Z,88537.00
2023-05-09T08:23:41.777Z,88535.00
2023-05-09T08:24:41.808Z,88533.00
2023-05-09T08:25:41.849Z,88529.00
2023-05-09T08:26:42.198Z,88529.00
2023-05-09T08:27:41.913Z,88528.00
2023-05-09T08:28:41.950Z,88528.00
2023-05-09T08:29:41.996Z,88528.00
2023-05-09T08:30:42.005Z,88528.00
2023-05-09T08:31:42.101Z,88521.00
2023-05-09T08:32:42.093Z,88523.00
2023-05-09T08:33:42.213Z,88515.00
2023-05-09T08:34:42.132Z,88510.00
2023-05-09T08:35:42.181Z,88510.00
2023-05-09T08:36:42.173Z,88508.00
2023-05-09T08:37:42.209Z,88505.00
2023-05-09T08:38:42.223Z,88501.00
2023-05-09T08:39:42.245Z,88499.00
2023-05-09T08:40:42.264Z,88497.00
2023-05-09T08:41:42.297Z,88495.00
2023-05-09T08:42:42.414Z,88495.00
2023-05-09T08:43:42.335Z,88493.00
2023-05-09T08:44:42.367Z,88491.00
2023-05-09T08:45:42.390Z,88487.00
2023-05-09T08:46:42.481Z,88489.00
2023-05-09T08:47:42.503Z,88489.00
2023-05-09T08:48:42.467Z,88489.00
2023-05-09T08:49:42.466Z,88491.00
2023-05-09T08:50:42.511Z,88489.00
2023-05-09T08:51:42.514Z,88491.00
2023-05-09T08:52:42.539Z,88493.00
2023-05-09T08:53:42.553Z,88493.00
2023-05-09T08:54:42.577Z,88497.00
2023-05-09T08:55:42.597Z,88497.00
2023-05-09T08:56:42.612Z,88499.00
2023-05-09T08:57:42.627Z,88497.00
2023-05-09T08:58:42.739Z,88495.00
2023-05-09T08:59:42.700Z,88493.00
2023-05-09T09:00:42.686Z,88495.00
2023-05-09T09:01:42.743Z,88493.00
2023-05-09T09:02:42.790Z,88491.00
2023-05-09T09:03:42.793Z,88493.00
2023-05-09T09:04:42.892Z,88489.00
2023-05-09T09:05:42.980Z,88491.00
2023-05-09T09:06:43.007Z,88487.00
2023-05-09T09:07:43.089Z,88485.00
2023-05-09T09:08:43.182Z,88485.00
2023-05-09T09:09:43.256Z,88485.00
2023-05-09T09:10:43.384Z,88483.00
2023-05-09T09:11:43.442Z,88479.00
2023-05-09T09:12:43.533Z,88477.00
2023-05-09T09:13:43.613Z,88477.00
2023-05-09T09:14:43.848Z,88477.00
2023-05-09T09:15:43.750Z,88477.00
2023-05-09T09:16:43.848Z,88475.00
2023-05-09T09:17:43.889Z,88473.00
2023-05-09T09:18:43.975Z,88471.00
2023-05-09T09:19:44.020Z,88469.00
2023-05-09T09:20:44.085Z,88467.00
2023-05-09T09:21:44.136Z,88463.00
2023-05-09T09:22:44.195Z,88467.00
2023-05-09T09:23:44.277Z,88461.00
2023-05-09T09:24:44.380Z,88460.00
2023-05-09T09:25:44.442Z,88458.00
2023-05-09T09:26:44.607Z,88454.00
2023-05-09T09:27:44.582Z,88452.00
2023-05-09T09:28:44.694Z,88448.00
2023-05-09T09:29:44.745Z,88446.00
2023-05-09T09:30:44.947Z,88444.00
2023-05-09T09:31:44.967Z,88444.00
2023-05-09T09:32:45.077Z,88444.00
2023-05-09T09:33:45.129Z,88444.00
2023-05-09T09:34:45.146Z,88440.00
2023-05-09T09:35:45.158Z,88442.00
2023-05-09T09:36:45.183Z,88440.00
2023-05-09T09:37:45.216Z,88436.00
2023-05-09T09:38:45.228Z,88438.00
2023-05-09T09:39:45.253Z,88432.00
2023-05-09T09:40:45.269Z,88430.00
2023-05-09T09:41:45.320Z,88428.00
2023-05-09T09:42:45.313Z,88424.00
2023-05-09T09:43:45.402Z,88422.00
2023-05-09T09:44:45.477Z,88422.00
2023-05-09T09:45:45.643Z,88418.00
2023-05-09T09:46:45.798Z,88411.00
2023-05-09T09:47:45.796Z,88411.00
2023-05-09T09:48:45.848Z,88411.00
2023-05-09T09:49:46.215Z,88411.00
2023-05-09T09:50:45.996Z,88409.00
2023-05-09T09:51:46.096Z,88407.00
2023-05-09T09:52:46.174Z,88409.00
2023-05-09T09:53:46.239Z,88407.00
2023-05-09T09:54:46.329Z,88405.00
2023-05-09T09:55:46.401Z,88403.00
2023-05-09T09:56:46.450Z,88403.00
2023-05-09T09:57:46.526Z,88399.00
2023-05-09T09:58:46.583Z,88395.00
2023-05-09T09:59:46.659Z,88393.00
2023-05-09T10:00:46.732Z,88393.00
2023-05-09T10:01:46.783Z,88395.00
2023-05-09T10:02:46.985Z,88393.00
2023-05-09T10:03:46.975Z,88393.00
2023-05-09T10:04:46.973Z,88393.00
2023-05-09T10:05:47.094Z,88391.00
2023-05-09T10:06:47.118Z,88391.00
2023-05-09T10:07:47.175Z,88387.00
2023-05-09T10:08:47.258Z,88387.00
2023-05-09T10:09:47.242Z,88383.00
2023-05-09T10:10:47.255Z,88381.00
2023-05-09T10:11:47.289Z,88377.00
2023-05-09T10:12:47.349Z,88377.00
2023-05-09T10:13:47.363Z,88371.00
2023-05-09T10:14:47.328Z,88375.00
2023-05-09T10:15:53.643Z,88371.00
2023-05-09T10:16:48.475Z,88369.00
2023-05-09T10:17:47.488Z,88369.00
2023-05-09T10:18:47.571Z,88369.00
2023-05-09T10:19:47.396Z,88369.00
2023-05-09T10:20:47.402Z,88365.00
2023-05-09T10:21:47.393Z,88367.00
2023-05-09T10:22:47.410Z,88367.00
2023-05-09T10:23:47.436Z,88365.00
2023-05-09T10:24:47.447Z,88365.00
2023-05-09T10:25:47.471Z,88367.00
2023-05-09T10:26:47.456Z,88369.00
2023-05-09T10:27:47.485Z,88365.00
2023-05-09T10:28:47.520Z,88363.00
2023-05-09T10:29:47.585Z,88359.00
2023-05-09T10:30:47.651Z,88361.00
2023-05-09T10:31:47.775Z,88358.00
2023-05-09T10:32:47.852Z,88356.00
2023-05-09T10:33:47.836Z,88354.00
2023-05-09T10:34:47.994Z,88352.00
2023-05-09T10:35:47.944Z,88352.00
2023-05-09T10:36:48.005Z,88350.00
2023-05-09T10:37:48.078Z,88352.00
2023-05-09T10:38:48.112Z,88348.00
2023-05-09T10:39:48.188Z,88348.00
2023-05-09T10:40:48.215Z,88348.00
2023-05-09T10:41:48.266Z,88346.00
2023-05-09T10:42:48.388Z,88340.00
2023-05-09T10:43:48.368Z,88340.00
2023-05-09T10:44:48.422Z,88338.00
2023-05-09T10:45:48.469Z,88336.00
2023-05-09T10:46:48.585Z,88336.00
2023-05-09T10:47:48.614Z,88334.00
2023-05-09T10:48:48.610Z,88332.00
2023-05-09T10:49:48.650Z,88332.00
2023-05-09T10:50:48.778Z,88328.00
2023-05-09T10:51:48.734Z,88324.00
2023-05-09T10:52:48.788Z,88322.00
2023-05-09T10:53:48.840Z,88318.00
2023-05-09T10:54:48.919Z,88316.00
2023-05-09T10:55:48.974Z,88314.00
2023-05-09T10:56:49.060Z,88314.00
2023-05-09T10:57:49.095Z,88312.00
2023-05-09T10:58:49.161Z,88309.00
2023-05-09T10:59:49.232Z,88309.00
2023-05-09T11:00:49.292Z,88309.00
2023-05-09T11:01:49.410Z,88307.00
2023-05-09T11:02:49.524Z,88305.00
2023-05-09T11:03:49.850Z,88305.00
2023-05-09T11:04:49.517Z,88299.00
2023-05-09T11:05:49.531Z,88301.00
2023-05-09T11:06:49.780Z,88297.00
2023-05-09T11:07:49.563Z,88295.00
2023-05-09T11:08:49.580Z,88295.00
2023-05-09T11:09:49.606Z,88289.00
2023-05-09T11:10:49.622Z,88289.00
2023-05-09T11:11:49.619Z,88285.00
2023-05-09T11:12:49.653Z,88285.00
2023-05-09T11:13:49.645Z,88281.00
2023-05-09T11:14:49.665Z,88281.00
2023-05-09T11:15:49.678Z,88279.00
2023-05-09T11:16:49.711Z,88279.00
2023-05-09T11:17:49.746Z,88277.00
2023-05-09T11:18:49.767Z,88279.00
2023-05-09T11:19:49.743Z,88273.00
2023-05-09T11:20:49.722Z,88277.00
2023-05-09T11:21:49.747Z,88275.00
2023-05-09T11:22:49.842Z,88271.00
2023-05-09T11:23:49.819Z,88273.00
2023-05-09T11:24:49.888Z,88273.00
2023-05-09T11:25:49.955Z,88277.00
2023-05-09T11:26:50.012Z,88279.00
2023-05-09T11:27:50.089Z,88279.00
2023-05-09T11:28:50.141Z,88277.00
2023-05-09T11:29:50.200Z,88279.00
2023-05-09T11:30:50.262Z,88281.00
2023-05-09T11:31:50.362Z,88277.00
2023-05-09T11:32:50.432Z,88273.00
2023-05-09T11:33:50.443Z,88273.00
2023-05-09T11:34:50.515Z,88273.00
2023-05-09T11:35:50.610Z,88269.00
2023-05-09T11:36:50.620Z,88273.00
2023-05-09T11:37:50.694Z,88273.00
2023-05-09T11:38:50.829Z,88273.00
2023-05-09T11:39:50.801Z,88271.00
2023-05-09T11:40:50.850Z,88267.00
2023-05-09T11:41:50.898Z,88267.00
2023-05-09T11:42:50.954Z,88267.00
2023-05-09T11:43:51.011Z,88265.00
2023-05-09T11:44:51.076Z,88265.00